createdAt,value
2022-08-28T00:02:16.823Z,99017.55
2022-08-28T00:12:22.532Z,99020.34
2022-08-28T00:22:28.480Z,99020.70
2022-08-28T00:32:35.732Z,99017.11
2022-08-28T00:42:41.432Z,99020.71
2022-08-28T00:52:48.978Z,99020.17
2022-08-28T01:02:54.971Z,99012.33
2022-08-28T01:13:01.834Z,99012.09
2022-08-28T01:23:17.011Z,99010.33
2022-08-28T01:33:27.963Z,99012.39
2022-08-28T01:43:34.168Z,99013.64
2022-08-28T01:53:41.366Z,99015.83
2022-08-28T02:03:47.348Z,99008.30
2022-08-28T02:13:56.342Z,99004.44
2022-08-28T02:24:02.194Z,99006.20
2022-08-28T02:34:07.929Z,99002.56
2022-08-28T02:44:13.746Z,99000.34
2022-08-28T02:54:19.591Z,98994.59
2022-08-28T03:04:25.157Z,99001.37
2022-08-28T03:14:31.009Z,99009.31
2022-08-28T03:24:37.619Z,99006.84
2022-08-28T03:34:43.299Z,99008.81
2022-08-28T03:44:49.705Z,99016.53
2022-08-28T03:54:55.683Z,99021.77
2022-08-28T04:05:01.286Z,99023.48
2022-08-28T04:15:09.399Z,99020.63
2022-08-28T04:25:15.581Z,99019.45
2022-08-28T04:35:21.360Z,99019.96
2022-08-28T04:45:27.185Z,99023.30
2022-08-28T04:55:54.600Z,99026.19
2022-08-28T05:05:58.577Z,99026.63
2022-08-28T05:16:06.115Z,99033.41
2022-08-28T05:26:16.158Z,99044.48
2022-08-28T05:36:25.756Z,99049.10
2022-08-28T05:46:32.841Z,99052.85
2022-08-28T05:56:41.022Z,99055.22
2022-08-28T06:06:49.462Z,99057.73
2022-08-28T06:16:57.474Z,99052.98
2022-08-28T06:27:03.400Z,99053.58
2022-08-28T06:37:10.364Z,99049.16
2022-08-28T06:47:16.323Z,99061.88
2022-08-28T06:57:22.201Z,99060.70
2022-08-28T07:07:32.631Z,99046.90
2022-08-28T07:17:38.547Z,99046.17
2022-08-28T07:27:44.253Z,99049.94
2022-08-28T07:37:50.172Z,99049.90
2022-08-28T07:47:55.885Z,99054.02
2022-08-28T07:58:02.332Z,99052.40
2022-08-28T08:08:08.268Z,99046.48
2022-08-28T08:18:14.204Z,99037.23
2022-08-28T08:28:21.105Z,99039.45
2022-08-28T08:38:27.102Z,99051.09
2022-08-28T08:48:36.182Z,99062.55
2022-08-28T08:58:44.291Z,99077.36
2022-08-28T09:08:56.325Z,99085.45
2022-08-28T09:19:03.729Z,99084.98
2022-08-28T09:29:17.142Z,99084.52
2022-08-28T09:39:24.736Z,99084.84
2022-08-28T09:49:31.823Z,99093.29
2022-08-28T09:59:37.520Z,99094.63
2022-08-28T10:09:46.975Z,99093.77
2022-08-28T10:20:02.474Z,99094.42
2022-08-28T10:30:13.994Z,99098.95
2022-08-28T10:40:25.549Z,99101.60
2022-08-28T10:50:38.466Z,99097.70
2022-08-28T11:00:44.881Z,99100.20
2022-08-28T11:10:54.168Z,99095.39
2022-08-28T11:21:08.959Z,99100.80
2022-08-28T11:31:33.976Z,99094.09
2022-08-28T11:41:41.540Z,99093.16
2022-08-28T11:52:09.006Z,99089.30
2022-08-28T12:02:46.640Z,99083.69
2022-08-28T12:12:58.457Z,99093.76
2022-08-28T12:23:25.175Z,99084.81
2022-08-28T12:33:38.921Z,99074.92
2022-08-28T12:43:48.367Z,99077.71
2022-08-28T12:53:56.099Z,99074.33
2022-08-28T13:04:05.429Z,99075.52
2022-08-28T13:14:11.320Z,99072.89
2022-08-28T13:24:40.290Z,99067.42
2022-08-28T13:35:16.723Z,99080.98
2022-08-28T13:45:22.474Z,99086.38
2022-08-28T13:55:28.145Z,99073.77
2022-08-28T14:05:34.476Z,99061.86
2022-08-28T14:15:40.309Z,99057.67
2022-08-28T14:25:47.834Z,99047.55
2022-08-28T14:35:54.050Z,99036.79
2022-08-28T14:46:00.684Z,99062.60
2022-08-28T14:56:09.857Z,99086.70
2022-08-28T15:06:15.858Z,99102.94
2022-08-28T15:16:29.322Z,99098.98
2022-08-28T15:26:37.866Z,99110.67
2022-08-28T15:36:44.911Z,99132.45
2022-08-28T15:47:03.141Z,99154.53
2022-08-28T15:57:08.881Z,99167.06
2022-08-28T16:07:14.558Z,99179.21
2022-08-28T16:17:20.484Z,99172.72
2022-08-28T16:27:26.490Z,99151.04
2022-08-28T16:37:39.694Z,99155.11
2022-08-28T16:47:45.901Z,99168.13
2022-08-28T16:57:51.831Z,99174.98
2022-08-28T17:07:57.651Z,99200.08
2022-08-28T17:18:03.679Z,99216.38
2022-08-28T17:28:11.020Z,99222.23
2022-08-28T17:38:17.678Z,99221.39
2022-08-28T17:48:23.854Z,99223.34
2022-08-28T17:58:31.663Z,99219.59
2022-08-28T18:08:40.716Z,99200.00
2022-08-28T18:18:46.437Z,99193.98
2022-08-28T18:28:52.724Z,99203.00
2022-08-28T18:38:58.758Z,99198.04
2022-08-28T18:49:04.972Z,99202.71
2022-08-28T18:59:10.791Z,99197.40
2022-08-28T19:09:17.901Z,99195.64
2022-08-28T19:19:26.667Z,99214.59
2022-08-28T19:29:32.938Z,99205.65
2022-08-28T19:39:39.107Z,99205.46
2022-08-28T19:49:44.981Z,99202.80
2022-08-28T19:59:50.801Z,99198.45
2022-08-28T20:09:57.139Z,99190.23
2022-08-28T20:20:03.623Z,99189.86
2022-08-28T20:30:11.966Z,99203.45
2022-08-28T20:40:21.807Z,99214.38
2022-08-28T20:50:27.713Z,99227.23
2022-08-28T21:00:33.639Z,99228.65
2022-08-28T21:10:40.735Z,99232.55
2022-08-28T21:20:46.572Z,99225.81
2022-08-28T21:30:54.088Z,99221.01
2022-08-28T21:41:02.219Z,99227.23
2022-08-28T21:51:11.067Z,99241.70
2022-08-28T22:01:18.789Z,99251.02
2022-08-28T22:11:26.803Z,99263.05
2022-08-28T22:21:50.617Z,99255.66
2022-08-28T22:31:56.351Z,99254.55
2022-08-28T22:42:02.252Z,99263.86
2022-08-28T22:52:10.156Z,99264.73
2022-08-28T23:02:17.551Z,99263.46
2022-08-28T23:12:23.385Z,99266.00
2022-08-28T23:22:29.168Z,99268.02
2022-08-28T23:32:35.050Z,99267.30
2022-08-28T23:42:41.253Z,99275.07
2022-08-28T23:52:47.298Z,99272.62
